Strona główna
METAR-TAF:

METAR-TAF

Lotnisko :

Port lotniczy Brive

Brive-la-Gaillarde, Francja

Szerokość geograficzna: 45-02-28N, Długość geograficzna: 001-28-59E, wysokość: 311 m

Aktualna obserwacja pogody

Raport powstał 24 minut temu, godzina 09:00 UTC
Wiatr 3 kt od zachodnio-północny zachód, zmienny między południowy zachód i północno-północny wschód
Temperatura 16°C
Wilgotność 77%
Ciśnienie 1001 hPa
Widzialność 10 km lub więcej

METAR: LFSL 040900Z AUTO 29003KT 230V030 9999 SCT016/// BKN027/// BKN043/// 16/12 Q1001

czas: 11:24 (09:24 UTC)


TAF: brakujący

Obserwacja i prognoza pogody dla ponad 4000 lotnisk (raport METAR i TAF).

Dostępne stacje oznaczono żółtymi i czerwonymi punktami na mapie.

Najedź kursorem aby zobaczyć nazwę stacji.

Kliknij aby zobaczyć obserwacje i prognozy pogody.

Aby zmienić mapę: kliknij na zielony przycisk z czarnym krzyżykiem, aby powiększyć; na zielony przycisk z myślnikiem, aby pomniejszyć; na zielone strzałki, aby przejść do map sąsiednich.


METAR-TAF: